createdAt,value
2019-02-12T00:04:02.253Z,2.09
2019-02-12T00:09:09.918Z,2.15
2019-02-12T00:14:17.549Z,2.20
2019-02-12T00:19:25.368Z,1.93
2019-02-12T00:24:33.046Z,2.43
2019-02-12T00:29:40.961Z,1.78
2019-02-12T00:34:48.737Z,1.80
2019-02-12T00:39:56.467Z,1.87
2019-02-12T00:45:04.005Z,1.52
2019-02-12T00:50:11.716Z,1.48
2019-02-12T00:55:20.314Z,1.58
2019-02-12T01:00:28.252Z,1.64
2019-02-12T01:05:36.154Z,1.54
2019-02-12T01:10:43.898Z,1.44
2019-02-12T01:15:51.666Z,1.54
2019-02-12T01:20:59.508Z,1.41
2019-02-12T01:26:07.417Z,1.51
2019-02-12T01:31:15.330Z,1.30
2019-02-12T01:36:23.084Z,1.57
2019-02-12T01:41:30.673Z,1.34
2019-02-12T01:46:38.303Z,1.31
2019-02-12T01:51:46.029Z,1.28
2019-02-12T01:56:53.646Z,1.27
2019-02-12T02:02:01.345Z,1.24
2019-02-12T02:07:08.950Z,1.27
2019-02-12T02:12:16.689Z,1.56
2019-02-12T02:17:24.309Z,1.27
2019-02-12T02:22:32.062Z,1.35
2019-02-12T02:27:39.742Z,1.93
2019-02-12T02:32:47.709Z,1.38
2019-02-12T02:37:55.453Z,1.68
2019-02-12T02:43:03.217Z,1.37
2019-02-12T02:48:10.999Z,1.45
2019-02-12T02:53:18.817Z,1.81
2019-02-12T02:58:27.321Z,1.59
2019-02-12T03:03:35.265Z,1.73
2019-02-12T03:08:42.869Z,1.32
2019-02-12T03:13:50.541Z,1.59
2019-02-12T03:18:58.111Z,1.29
2019-02-12T03:24:05.741Z,1.41
2019-02-12T03:29:13.393Z,1.39
2019-02-12T03:34:21.290Z,1.35
2019-02-12T03:39:29.054Z,1.54
2019-02-12T03:44:36.858Z,1.73
2019-02-12T03:49:44.565Z,1.67
2019-02-12T03:54:52.318Z,1.70
2019-02-12T04:00:00.036Z,1.47
2019-02-12T04:05:07.626Z,2.69
2019-02-12T04:10:15.354Z,1.77
2019-02-12T04:15:22.958Z,1.87
2019-02-12T04:20:30.657Z,1.78
2019-02-12T04:25:38.263Z,1.73
2019-02-12T04:30:46.118Z,1.51
2019-02-12T04:35:53.773Z,1.78
2019-02-12T04:41:01.388Z,1.78
2019-02-12T04:46:09.207Z,1.59
2019-02-12T04:51:16.909Z,1.39
2019-02-12T04:56:24.675Z,2.14
2019-02-12T05:01:32.414Z,1.80
2019-02-12T05:06:40.162Z,1.69
2019-02-12T05:11:47.758Z,1.63
2019-02-12T05:16:55.489Z,1.76
2019-02-12T05:22:03.103Z,1.81
2019-02-12T05:27:10.934Z,1.56
2019-02-12T05:32:18.726Z,1.47
2019-02-12T05:37:26.558Z,1.27
2019-02-12T05:42:34.308Z,1.73
2019-02-12T05:47:41.981Z,1.82
2019-02-12T05:52:54.742Z,1.44
2019-02-12T05:57:50.557Z,1.40
2019-02-12T06:02:58.290Z,1.53
2019-02-12T06:08:05.924Z,1.60
2019-02-12T06:13:13.545Z,1.74
2019-02-12T06:18:21.350Z,1.50
2019-02-12T06:23:29.171Z,1.57
2019-02-12T06:28:36.913Z,1.63
2019-02-12T06:33:44.642Z,1.81
2019-02-12T06:38:52.292Z,1.48
2019-02-12T06:43:59.938Z,1.76
2019-02-12T06:49:07.577Z,1.71
2019-02-12T06:54:15.316Z,1.49
2019-02-12T06:59:22.975Z,1.56
2019-02-12T07:04:30.860Z,1.68
2019-02-12T07:09:38.621Z,1.80
2019-02-12T07:14:46.363Z,1.60
2019-02-12T07:19:53.937Z,1.63
2019-02-12T07:25:01.637Z,1.60
2019-02-12T07:30:10.377Z,1.76
2019-02-12T07:35:18.293Z,1.92
2019-02-12T07:40:26.101Z,1.78
2019-02-12T07:45:33.733Z,1.95
2019-02-12T07:50:41.435Z,1.98
2019-02-12T07:55:51.401Z,2.01
2019-02-12T08:00:56.726Z,1.94
2019-02-12T08:06:04.413Z,1.76
2019-02-12T08:11:12.017Z,2.14
2019-02-12T08:16:20.001Z,2.18
2019-02-12T08:21:28.649Z,1.93
2019-02-12T08:26:36.526Z,1.88
2019-02-12T08:31:44.292Z,1.93
2019-02-12T08:36:52.009Z,1.86
2019-02-12T08:41:59.766Z,1.78
2019-02-12T08:47:07.433Z,1.98
2019-02-12T08:52:15.178Z,1.78
2019-02-12T08:57:23.942Z,1.72
2019-02-12T09:02:31.577Z,1.66
2019-02-12T09:07:39.260Z,1.89
2019-02-12T09:12:46.849Z,1.67
2019-02-12T09:17:54.449Z,1.97
2019-02-12T09:23:03.357Z,1.61
2019-02-12T09:28:11.009Z,2.14
2019-02-12T09:33:18.687Z,2.05
2019-02-12T09:38:26.389Z,2.05
2019-02-12T09:43:34.021Z,2.29
2019-02-12T09:48:41.717Z,2.71
2019-02-12T09:53:49.466Z,2.27
2019-02-12T09:58:57.133Z,2.19
2019-02-12T10:04:04.807Z,2.57
2019-02-12T10:09:12.559Z,2.07
2019-02-12T10:14:20.249Z,2.16
2019-02-12T10:19:27.901Z,1.96
2019-02-12T10:24:36.708Z,1.92
2019-02-12T10:29:44.445Z,2.13
2019-02-12T10:34:52.230Z,2.35
2019-02-12T10:39:59.933Z,2.67
2019-02-12T10:45:07.550Z,2.51
2019-02-12T10:50:15.467Z,2.45
2019-02-12T10:55:24.056Z,2.68
2019-02-12T11:00:31.889Z,2.36
2019-02-12T11:05:39.528Z,2.58
2019-02-12T11:10:47.198Z,2.93
2019-02-12T11:15:54.778Z,2.59
2019-02-12T11:21:02.480Z,2.86
2019-02-12T11:26:10.203Z,2.63
2019-02-12T11:31:17.901Z,2.89
2019-02-12T11:36:25.980Z,2.77
2019-02-12T11:41:34.258Z,2.61
2019-02-12T11:46:41.944Z,2.54
2019-02-12T11:51:49.561Z,2.66
2019-02-12T11:56:57.181Z,2.45
2019-02-12T12:02:04.818Z,2.48
2019-02-12T12:07:12.747Z,2.95
2019-02-12T12:12:20.385Z,2.72
2019-02-12T12:17:28.074Z,2.59
2019-02-12T12:22:36.665Z,3.05
2019-02-12T12:27:44.432Z,2.88
2019-02-12T12:32:52.092Z,2.93
2019-02-12T12:37:59.781Z,2.99
2019-02-12T12:43:07.425Z,3.19
2019-02-12T12:48:15.488Z,3.35
2019-02-12T12:53:36.546Z,3.79
2019-02-12T12:58:24.357Z,3.79
2019-02-12T13:03:31.949Z,3.31
2019-02-12T13:08:39.781Z,3.70
2019-02-12T13:13:48.433Z,4.09
2019-02-12T13:18:56.236Z,3.85
2019-02-12T13:24:03.969Z,3.71
2019-02-12T13:29:11.610Z,3.89
2019-02-12T13:34:19.379Z,3.98
2019-02-12T13:39:27.122Z,5.59
2019-02-12T13:44:34.756Z,4.33
2019-02-12T13:49:42.537Z,3.67
2019-02-12T13:54:50.602Z,3.79
2019-02-12T13:59:58.201Z,4.18
2019-02-12T14:05:05.840Z,3.92
2019-02-12T14:10:13.442Z,4.12
2019-02-12T14:15:21.348Z,3.97
2019-02-12T14:20:28.986Z,4.45
2019-02-12T14:25:36.738Z,4.07
2019-02-12T14:30:44.879Z,3.79
2019-02-12T14:35:52.501Z,3.80
2019-02-12T14:41:00.327Z,3.90
2019-02-12T14:46:07.965Z,3.96
2019-02-12T14:51:16.383Z,3.75
2019-02-12T14:56:26.933Z,4.24
2019-02-12T15:01:24.574Z,3.75
2019-02-12T15:06:32.530Z,3.80
2019-02-12T15:11:40.214Z,4.86
2019-02-12T15:16:47.797Z,5.02
2019-02-12T15:21:55.505Z,5.08
2019-02-12T15:27:03.109Z,5.29
2019-02-12T15:32:10.745Z,5.24
2019-02-12T15:37:18.381Z,6.06
2019-02-12T15:42:25.966Z,5.65
2019-02-12T15:47:33.720Z,5.67
2019-02-12T15:52:41.393Z,6.06
2019-02-12T15:57:49.081Z,6.44
2019-02-12T16:02:57.978Z,6.28
2019-02-12T16:08:05.653Z,6.33
2019-02-12T16:13:11.551Z,6.66
2019-02-12T16:18:18.601Z,6.96
2019-02-12T16:23:26.351Z,7.37
2019-02-12T16:28:34.795Z,7.89
2019-02-12T16:33:42.402Z,10.96
2019-02-12T16:38:49.977Z,8.12
2019-02-12T16:43:57.613Z,8.54
2019-02-12T16:49:05.298Z,8.45
2019-02-12T16:54:13.093Z,9.18
2019-02-12T16:59:20.736Z,8.59
2019-02-12T17:04:28.569Z,9.40
2019-02-12T17:09:36.214Z,8.98
2019-02-12T17:14:44.108Z,9.10
2019-02-12T17:19:51.724Z,8.95
2019-02-12T17:25:00.361Z,8.90
2019-02-12T17:30:08.024Z,9.07
2019-02-12T17:35:15.741Z,8.58
2019-02-12T17:40:23.453Z,8.74
2019-02-12T17:45:31.432Z,8.16
2019-02-12T17:50:40.317Z,8.33
2019-02-12T17:55:48.126Z,8.14
2019-02-12T18:00:55.711Z,7.93
2019-02-12T18:06:03.425Z,7.59
2019-02-12T18:11:11.312Z,7.09
2019-02-12T18:16:19.053Z,7.10
2019-02-12T18:21:27.648Z,6.96
2019-02-12T18:26:35.337Z,6.91
2019-02-12T18:31:43.204Z,6.55
2019-02-12T18:36:51.386Z,6.51
2019-02-12T18:41:59.357Z,5.92
2019-02-12T18:47:07.073Z,6.17
2019-02-12T18:52:14.677Z,6.12
2019-02-12T18:57:22.597Z,6.13
2019-02-12T19:02:30.303Z,6.12
2019-02-12T19:07:37.962Z,9.33
2019-02-12T19:12:45.614Z,5.94
2019-02-12T19:17:53.203Z,5.97
2019-02-12T19:23:00.817Z,6.26
2019-02-12T19:28:08.382Z,6.89
2019-02-12T19:33:16.288Z,5.85
2019-02-12T19:38:24.016Z,6.09
2019-02-12T19:43:32.150Z,6.04
2019-02-12T19:48:40.682Z,6.57
2019-02-12T19:53:48.497Z,6.46
2019-02-12T19:58:56.224Z,9.68
2019-02-12T20:04:03.980Z,6.36
2019-02-12T20:09:11.748Z,6.58
2019-02-12T20:14:19.594Z,6.98
2019-02-12T20:19:27.241Z,6.73
2019-02-12T20:24:34.916Z,6.85
2019-02-12T20:29:42.580Z,7.02
2019-02-12T20:34:50.345Z,7.51
2019-02-12T20:39:57.968Z,11.74
2019-02-12T20:45:07.671Z,8.22
2019-02-12T20:50:16.487Z,9.52
2019-02-12T20:55:24.379Z,10.28
2019-02-12T21:00:33.097Z,10.45
2019-02-12T21:05:40.757Z,12.44
2019-02-12T21:10:48.433Z,12.98
2019-02-12T21:15:56.080Z,12.92
2019-02-12T21:21:03.785Z,12.98
2019-02-12T21:26:11.492Z,13.86
2019-02-12T21:31:19.777Z,14.28
2019-02-12T21:36:28.348Z,14.27
2019-02-12T21:41:36.270Z,14.10
2019-02-12T21:46:43.917Z,14.46
2019-02-12T21:51:51.702Z,14.90
2019-02-12T21:56:59.771Z,14.97
2019-02-12T22:02:07.521Z,14.78
2019-02-12T22:07:15.362Z,15.38
2019-02-12T22:12:24.069Z,14.80
2019-02-12T22:17:31.826Z,15.12
2019-02-12T22:22:39.569Z,14.75
2019-02-12T22:27:47.258Z,15.62
2019-02-12T22:32:55.010Z,15.61
2019-02-12T22:38:02.652Z,15.05
2019-02-12T22:43:10.292Z,15.27
2019-02-12T22:48:17.905Z,14.97
2019-02-12T22:53:26.583Z,15.65
2019-02-12T22:58:34.317Z,15.44
2019-02-12T23:03:41.947Z,22.27
2019-02-12T23:08:49.518Z,15.70
2019-02-12T23:13:59.361Z,15.97
2019-02-12T23:19:07.210Z,15.37
2019-02-12T23:24:14.889Z,15.60
2019-02-12T23:29:22.541Z,15.43
2019-02-12T23:34:30.281Z,15.37
2019-02-12T23:39:37.977Z,22.40
2019-02-12T23:44:45.560Z,15.88
2019-02-12T23:49:53.305Z,15.42
2019-02-12T23:55:01.040Z,16.27
